Terminal Aerodrome Forecast
Issued by NWS

Home | Current Version | Previous Version | Text Only | Print | Product List | Glossary On
Versions: 1 2 3 4 5 6 7 8 9 10 11 12 13 14 15 16 17 18 19 20 21 22 23 24
000
FTUS43 KGRR 181741
TAFBTL
TAF
KBTL 181741Z 1818/1918 35010KT 5SM -RA BR OVC008
     FM182300 32015G23KT P6SM OVC012
     FM190600 31012KT P6SM -SHSN OVC030
     FM191200 29012G20KT P6SM -SHSN OVC025=

USA.gov is the U.S. government's official web portal to all federal, state and local government web resources and services.